IBE04FT LEBL-LEMD
Flight info
| Callsign | IBE04FT |
|---|---|
| Flight time | 0h 57m |
| Altitude | 27000 |
| Route | SENIA Z596 TERSA |
| Aircraft | A320/M-SDE3FGHIRWY/LB1 |
Departure
| Time | 2026-05-04 22:47 |
|---|---|
| Airport | Josep Tarradellas Barcelona-El Prat Airport (LEBL) |
Arrival
| Time | 2026-05-04 23:44 |
|---|---|
| Airport | Adolfo Suárez Madrid–Barajas Airport (LEMD) |
| Time | Latitude | Longitude | Altitude | Speed | Heading |
|---|---|---|---|---|---|
| 2026-05-04 22:05 | 41.29150 | 2.07945 | 19 ft | 0 kts | 155° |
| 2026-05-04 22:36 | 41.29157 | 2.07940 | 19 ft | 4 kts | 155° |
| 2026-05-04 22:37 | 41.29182 | 2.07926 | 21 ft | 4 kts | 155° |
| 2026-05-04 22:37 | 41.29202 | 2.07914 | 22 ft | 4 kts | 152° |
| 2026-05-04 22:37 | 41.29217 | 2.07893 | 20 ft | 4 kts | 91° |
| 2026-05-04 22:37 | 41.29211 | 2.07863 | 19 ft | 4 kts | 65° |
| 2026-05-04 22:38 | 41.29208 | 2.07852 | 19 ft | 0 kts | 65° |
| 2026-05-04 22:40 | 41.29208 | 2.07853 | 19 ft | 1 kts | 65° |
| 2026-05-04 22:40 | 41.29223 | 2.07897 | 22 ft | 10 kts | 65° |
| 2026-05-04 22:41 | 41.29263 | 2.08013 | 19 ft | 16 kts | 65° |
| 2026-05-04 22:41 | 41.29310 | 2.08149 | 21 ft | 11 kts | 65° |
| 2026-05-04 22:41 | 41.29354 | 2.08276 | 19 ft | 16 kts | 65° |
| 2026-05-04 22:41 | 41.29321 | 2.08410 | 20 ft | 16 kts | 159° |
| 2026-05-04 22:42 | 41.29199 | 2.08480 | 20 ft | 23 kts | 155° |
| 2026-05-04 22:42 | 41.29086 | 2.08548 | 16 ft | 0 kts | 155° |
| 2026-05-04 22:42 | 41.29075 | 2.08555 | 16 ft | 6 kts | 155° |
| 2026-05-04 22:42 | 41.29016 | 2.08590 | 18 ft | 13 kts | 155° |
| 2026-05-04 22:43 | 41.28909 | 2.08656 | 17 ft | 22 kts | 155° |
| 2026-05-04 22:43 | 41.28822 | 2.08615 | 17 ft | 17 kts | 244° |
| 2026-05-04 22:43 | 41.28757 | 2.08441 | 17 ft | 25 kts | 243° |
| 2026-05-04 22:43 | 41.28734 | 2.08379 | 16 ft | 10 kts | 243° |
| 2026-05-04 22:44 | 41.28694 | 2.08266 | 17 ft | 17 kts | 248° |
| 2026-05-04 22:44 | 41.28652 | 2.08125 | 18 ft | 17 kts | 248° |
| 2026-05-04 22:44 | 41.28626 | 2.08038 | 16 ft | 3 kts | 248° |
| 2026-05-04 22:44 | 41.28603 | 2.07973 | 17 ft | 12 kts | 242° |
| 2026-05-04 22:45 | 41.28549 | 2.07838 | 16 ft | 19 kts | 245° |
| 2026-05-04 22:45 | 41.28419 | 2.07663 | 16 ft | 14 kts | 112° |
| 2026-05-04 22:45 | 41.28406 | 2.07829 | 18 ft | 21 kts | 98° |
| 2026-05-04 22:46 | 41.28410 | 2.07952 | 19 ft | 0 kts | 66° |
| 2026-05-04 22:46 | 41.28413 | 2.07963 | 22 ft | 0 kts | 66° |
| 2026-05-04 22:46 | 41.28479 | 2.08163 | 22 ft | 59 kts | 66° |
| 2026-05-04 22:47 | 41.28745 | 2.08933 | 22 ft | 122 kts | 65° |
| 2026-05-04 22:47 | 41.29172 | 2.10163 | 89 ft | 163 kts | 64° |
| 2026-05-04 22:47 | 41.29481 | 2.11555 | 769 ft | 157 kts | 87° |
| 2026-05-04 22:47 | 41.29305 | 2.12998 | 1367 ft | 161 kts | 110° |
| 2026-05-04 22:48 | 41.28901 | 2.14448 | 1791 ft | 175 kts | 104° |
| 2026-05-04 22:48 | 41.28709 | 2.16148 | 2056 ft | 197 kts | 94° |
| 2026-05-04 22:48 | 41.28669 | 2.18038 | 2399 ft | 211 kts | 92° |
| 2026-05-04 22:48 | 41.28548 | 2.20020 | 3049 ft | 215 kts | 96° |
| 2026-05-04 22:49 | 41.28369 | 2.21985 | 3851 ft | 213 kts | 98° |
| 2026-05-04 22:49 | 41.28174 | 2.23955 | 4536 ft | 218 kts | 97° |
| 2026-05-04 22:49 | 41.28011 | 2.25970 | 5223 ft | 220 kts | 95° |
| 2026-05-04 22:49 | 41.27863 | 2.28007 | 5910 ft | 223 kts | 97° |
| 2026-05-04 22:50 | 41.27671 | 2.30052 | 6616 ft | 224 kts | 99° |
| 2026-05-04 22:50 | 41.27189 | 2.32032 | 7174 ft | 233 kts | 118° |
| 2026-05-04 22:50 | 41.26403 | 2.34034 | 7478 ft | 255 kts | 117° |
| 2026-05-04 22:50 | 41.25582 | 2.36233 | 7885 ft | 273 kts | 116° |
| 2026-05-04 22:51 | 41.24751 | 2.38536 | 8536 ft | 280 kts | 115° |
| 2026-05-04 22:51 | 41.23908 | 2.40871 | 9336 ft | 281 kts | 116° |
| 2026-05-04 22:51 | 41.23030 | 2.43216 | 10019 ft | 287 kts | 117° |
| 2026-05-04 22:51 | 41.22121 | 2.45672 | 10352 ft | 307 kts | 116° |
| 2026-05-04 22:52 | 41.21158 | 2.48326 | 10537 ft | 330 kts | 116° |
| 2026-05-04 22:52 | 41.20136 | 2.51157 | 10818 ft | 347 kts | 116° |
| 2026-05-04 22:52 | 41.19080 | 2.54073 | 11403 ft | 353 kts | 116° |
| 2026-05-04 22:52 | 41.18008 | 2.57022 | 12040 ft | 356 kts | 116° |
| 2026-05-04 22:53 | 41.16865 | 2.59907 | 12663 ft | 360 kts | 123° |
| 2026-05-04 22:53 | 41.15244 | 2.62495 | 13291 ft | 362 kts | 137° |
| 2026-05-04 22:53 | 41.13221 | 2.64486 | 13901 ft | 364 kts | 151° |
| 2026-05-04 22:53 | 41.10921 | 2.65791 | 14483 ft | 366 kts | 165° |
| 2026-05-04 22:54 | 41.08407 | 2.66355 | 15058 ft | 368 kts | 178° |
| 2026-05-04 22:54 | 41.05844 | 2.66197 | 15613 ft | 370 kts | 186° |
| 2026-05-04 22:54 | 41.03270 | 2.65910 | 16162 ft | 373 kts | 185° |
| 2026-05-04 22:54 | 41.00669 | 2.65593 | 16689 ft | 376 kts | 189° |
| 2026-05-04 22:55 | 40.98152 | 2.64658 | 17187 ft | 378 kts | 204° |
| 2026-05-04 22:55 | 40.95896 | 2.62877 | 17678 ft | 379 kts | 219° |
| 2026-05-04 22:55 | 40.94066 | 2.60368 | 18157 ft | 381 kts | 235° |
| 2026-05-04 22:55 | 40.92803 | 2.57290 | 18628 ft | 383 kts | 250° |
| 2026-05-04 22:56 | 40.92006 | 2.53924 | 19096 ft | 385 kts | 253° |
| 2026-05-04 22:56 | 40.91224 | 2.50523 | 19558 ft | 388 kts | 253° |
| 2026-05-04 22:56 | 40.90429 | 2.47097 | 20000 ft | 391 kts | 253° |
| 2026-05-04 22:56 | 40.89622 | 2.43653 | 20434 ft | 393 kts | 253° |
| 2026-05-04 22:57 | 40.88807 | 2.40192 | 20861 ft | 396 kts | 253° |
| 2026-05-04 22:57 | 40.87984 | 2.36711 | 21281 ft | 398 kts | 253° |
| 2026-05-04 22:57 | 40.87158 | 2.33211 | 21682 ft | 401 kts | 253° |
| 2026-05-04 22:57 | 40.86325 | 2.29684 | 22085 ft | 403 kts | 253° |
| 2026-05-04 22:58 | 40.85488 | 2.26137 | 22472 ft | 405 kts | 253° |
| 2026-05-04 22:58 | 40.84646 | 2.22577 | 22858 ft | 408 kts | 253° |
| 2026-05-04 22:58 | 40.83918 | 2.18953 | 23217 ft | 410 kts | 260° |
| 2026-05-04 22:58 | 40.83661 | 2.15197 | 23567 ft | 412 kts | 270° |
| 2026-05-04 22:59 | 40.83766 | 2.11416 | 23909 ft | 414 kts | 272° |
| 2026-05-04 22:59 | 40.83884 | 2.07606 | 24249 ft | 416 kts | 272° |
| 2026-05-04 22:59 | 40.83994 | 2.03779 | 24582 ft | 418 kts | 272° |
| 2026-05-04 22:59 | 40.84098 | 1.99934 | 24908 ft | 420 kts | 272° |
| 2026-05-04 23:00 | 40.84201 | 1.96069 | 25229 ft | 422 kts | 272° |
| 2026-05-04 23:00 | 40.84305 | 1.92185 | 25546 ft | 424 kts | 272° |
| 2026-05-04 23:00 | 40.84408 | 1.88284 | 25858 ft | 426 kts | 272° |
| 2026-05-04 23:00 | 40.84511 | 1.84358 | 26160 ft | 428 kts | 272° |
| 2026-05-04 23:01 | 40.84614 | 1.80422 | 26452 ft | 430 kts | 272° |
| 2026-05-04 23:01 | 40.84715 | 1.76469 | 26734 ft | 432 kts | 272° |
| 2026-05-04 23:01 | 40.84819 | 1.72496 | 26962 ft | 432 kts | 272° |
| 2026-05-04 23:01 | 40.84921 | 1.68534 | 27008 ft | 432 kts | 272° |
| 2026-05-04 23:02 | 40.85019 | 1.64571 | 27003 ft | 431 kts | 272° |
| 2026-05-04 23:02 | 40.85113 | 1.60624 | 27010 ft | 431 kts | 272° |
| 2026-05-04 23:02 | 40.85206 | 1.56672 | 27006 ft | 431 kts | 272° |
| 2026-05-04 23:02 | 40.85300 | 1.52701 | 27010 ft | 431 kts | 271° |
| 2026-05-04 23:03 | 40.85392 | 1.48741 | 27010 ft | 431 kts | 271° |
| 2026-05-04 23:03 | 40.85451 | 1.46117 | 27005 ft | 431 kts | 271° |
| 2026-05-04 23:03 | 40.85481 | 1.44829 | 27005 ft | 431 kts | 272° |
| 2026-05-04 23:03 | 40.85574 | 1.40872 | 27009 ft | 431 kts | 271° |
| 2026-05-04 23:04 | 40.85661 | 1.36910 | 27009 ft | 431 kts | 271° |
| 2026-05-04 23:04 | 40.85746 | 1.32961 | 27009 ft | 431 kts | 271° |
| 2026-05-04 23:04 | 40.85832 | 1.28989 | 27009 ft | 431 kts | 271° |
| 2026-05-04 23:04 | 40.85915 | 1.25035 | 27006 ft | 431 kts | 271° |
| 2026-05-04 23:05 | 40.85995 | 1.21079 | 27007 ft | 431 kts | 271° |
| 2026-05-04 23:05 | 40.86074 | 1.17116 | 27006 ft | 431 kts | 271° |
| 2026-05-04 23:05 | 40.86154 | 1.13161 | 27005 ft | 431 kts | 271° |
| 2026-05-04 23:05 | 40.86232 | 1.09204 | 27004 ft | 431 kts | 271° |
| 2026-05-04 23:06 | 40.86309 | 1.05255 | 27003 ft | 431 kts | 271° |
| 2026-05-04 23:06 | 40.86382 | 1.01299 | 27001 ft | 431 kts | 271° |
| 2026-05-04 23:06 | 40.86456 | 0.97347 | 27001 ft | 431 kts | 271° |
| 2026-05-04 23:06 | 40.86531 | 0.93394 | 26998 ft | 430 kts | 271° |
| 2026-05-04 23:07 | 40.86579 | 0.90772 | 26999 ft | 430 kts | 271° |
| 2026-05-04 23:07 | 40.86652 | 0.86818 | 26998 ft | 430 kts | 271° |
| 2026-05-04 23:07 | 40.86724 | 0.82873 | 26997 ft | 430 kts | 271° |
| 2026-05-04 23:07 | 40.86791 | 0.78922 | 26996 ft | 430 kts | 271° |
| 2026-05-04 23:08 | 40.86856 | 0.74965 | 26995 ft | 430 kts | 271° |
| 2026-05-04 23:08 | 40.86915 | 0.71017 | 26992 ft | 430 kts | 271° |
| 2026-05-04 23:08 | 40.86956 | 0.67064 | 26990 ft | 431 kts | 270° |
| 2026-05-04 23:08 | 40.86984 | 0.63103 | 26988 ft | 431 kts | 270° |
| 2026-05-04 23:09 | 40.87005 | 0.59136 | 26986 ft | 432 kts | 270° |
| 2026-05-04 23:09 | 40.87025 | 0.55168 | 26987 ft | 432 kts | 270° |
| 2026-05-04 23:09 | 40.87043 | 0.51202 | 26993 ft | 432 kts | 270° |
| 2026-05-04 23:09 | 40.87064 | 0.47233 | 26996 ft | 432 kts | 270° |
| 2026-05-04 23:10 | 40.87086 | 0.43265 | 26999 ft | 432 kts | 270° |
| 2026-05-04 23:10 | 40.87107 | 0.39298 | 26995 ft | 432 kts | 270° |
| 2026-05-04 23:10 | 40.87124 | 0.35333 | 26991 ft | 432 kts | 270° |
| 2026-05-04 23:10 | 40.87139 | 0.31354 | 26985 ft | 433 kts | 270° |
| 2026-05-04 23:11 | 40.87156 | 0.27368 | 26985 ft | 434 kts | 270° |
| 2026-05-04 23:11 | 40.87174 | 0.23383 | 26987 ft | 434 kts | 270° |
| 2026-05-04 23:11 | 40.87190 | 0.19396 | 26988 ft | 434 kts | 270° |
| 2026-05-04 23:11 | 40.87205 | 0.15407 | 26990 ft | 434 kts | 270° |
| 2026-05-04 23:12 | 40.87218 | 0.11416 | 26992 ft | 434 kts | 270° |
| 2026-05-04 23:12 | 40.87230 | 0.07429 | 26993 ft | 434 kts | 270° |
| 2026-05-04 23:12 | 40.87239 | 0.03443 | 26993 ft | 434 kts | 270° |
| 2026-05-04 23:12 | 40.87245 | -0.00549 | 26992 ft | 434 kts | 270° |
| 2026-05-04 23:13 | 40.87249 | -0.04534 | 26992 ft | 435 kts | 270° |
| 2026-05-04 23:13 | 40.87253 | -0.08531 | 26992 ft | 435 kts | 270° |
| 2026-05-04 23:13 | 40.87256 | -0.12525 | 26992 ft | 435 kts | 270° |
| 2026-05-04 23:13 | 40.87256 | -0.16520 | 26993 ft | 435 kts | 270° |
| 2026-05-04 23:14 | 40.87257 | -0.20511 | 26996 ft | 435 kts | 270° |
| 2026-05-04 23:14 | 40.87258 | -0.24505 | 27000 ft | 435 kts | 270° |
| 2026-05-04 23:14 | 40.87259 | -0.28496 | 27001 ft | 434 kts | 270° |
| 2026-05-04 23:14 | 40.87259 | -0.32434 | 26999 ft | 435 kts | 270° |
| 2026-05-04 23:15 | 40.87255 | -0.36428 | 26997 ft | 435 kts | 270° |
| 2026-05-04 23:15 | 40.87247 | -0.40420 | 26998 ft | 435 kts | 270° |
| 2026-05-04 23:15 | 40.87237 | -0.44421 | 26998 ft | 435 kts | 270° |
| 2026-05-04 23:15 | 40.87225 | -0.48421 | 26998 ft | 436 kts | 270° |
| 2026-05-04 23:16 | 40.87213 | -0.52419 | 26998 ft | 436 kts | 270° |
| 2026-05-04 23:16 | 40.87201 | -0.56434 | 26996 ft | 436 kts | 270° |
| 2026-05-04 23:16 | 40.87188 | -0.60442 | 26998 ft | 436 kts | 270° |
| 2026-05-04 23:16 | 40.87175 | -0.64443 | 26997 ft | 436 kts | 270° |
| 2026-05-04 23:17 | 40.87161 | -0.68449 | 26998 ft | 436 kts | 270° |
| 2026-05-04 23:17 | 40.87143 | -0.72456 | 26997 ft | 436 kts | 269° |
| 2026-05-04 23:17 | 40.87122 | -0.76465 | 26998 ft | 436 kts | 269° |
| 2026-05-04 23:17 | 40.87100 | -0.80523 | 26995 ft | 436 kts | 269° |
| 2026-05-04 23:18 | 40.87078 | -0.84477 | 26993 ft | 436 kts | 269° |
| 2026-05-04 23:18 | 40.87057 | -0.88479 | 26992 ft | 437 kts | 269° |
| 2026-05-04 23:18 | 40.87036 | -0.92497 | 26992 ft | 437 kts | 269° |
| 2026-05-04 23:18 | 40.87012 | -0.96500 | 26994 ft | 437 kts | 269° |
| 2026-05-04 23:19 | 40.86985 | -1.00516 | 26995 ft | 437 kts | 269° |
| 2026-05-04 23:19 | 40.86957 | -1.04533 | 26994 ft | 437 kts | 269° |
| 2026-05-04 23:19 | 40.86927 | -1.08546 | 26992 ft | 438 kts | 269° |
| 2026-05-04 23:19 | 40.86895 | -1.12568 | 26994 ft | 438 kts | 269° |
| 2026-05-04 23:20 | 40.86861 | -1.16592 | 26995 ft | 438 kts | 269° |
| 2026-05-04 23:20 | 40.86825 | -1.20616 | 26998 ft | 438 kts | 269° |
| 2026-05-04 23:20 | 40.86787 | -1.24638 | 27000 ft | 438 kts | 269° |
| 2026-05-04 23:20 | 40.86716 | -1.28655 | 27003 ft | 438 kts | 265° |
| 2026-05-04 23:21 | 40.86277 | -1.32628 | 27007 ft | 437 kts | 257° |
| 2026-05-04 23:21 | 40.85612 | -1.36549 | 27008 ft | 437 kts | 257° |
| 2026-05-04 23:21 | 40.84953 | -1.40466 | 27007 ft | 437 kts | 257° |
| 2026-05-04 23:21 | 40.84299 | -1.44383 | 27001 ft | 437 kts | 258° |
| 2026-05-04 23:22 | 40.83649 | -1.48293 | 26999 ft | 437 kts | 258° |
| 2026-05-04 23:22 | 40.82997 | -1.52219 | 26999 ft | 437 kts | 258° |
| 2026-05-04 23:22 | 40.82345 | -1.56141 | 26999 ft | 437 kts | 258° |
| 2026-05-04 23:22 | 40.81692 | -1.60058 | 26995 ft | 438 kts | 258° |
| 2026-05-04 23:23 | 40.81036 | -1.63982 | 26994 ft | 438 kts | 257° |
| 2026-05-04 23:23 | 40.80372 | -1.67912 | 26772 ft | 439 kts | 257° |
| 2026-05-04 23:23 | 40.79704 | -1.71850 | 26524 ft | 439 kts | 257° |
| 2026-05-04 23:23 | 40.79036 | -1.75776 | 26278 ft | 439 kts | 257° |
| 2026-05-04 23:24 | 40.78365 | -1.79697 | 25841 ft | 436 kts | 257° |
| 2026-05-04 23:24 | 40.77699 | -1.83585 | 25136 ft | 433 kts | 257° |
| 2026-05-04 23:24 | 40.77039 | -1.87447 | 24454 ft | 430 kts | 257° |
| 2026-05-04 23:24 | 40.76385 | -1.91281 | 23773 ft | 427 kts | 257° |
| 2026-05-04 23:25 | 40.75735 | -1.95083 | 23103 ft | 424 kts | 257° |
| 2026-05-04 23:25 | 40.75087 | -1.98856 | 22453 ft | 420 kts | 257° |
| 2026-05-04 23:25 | 40.74443 | -2.02607 | 21810 ft | 418 kts | 257° |
| 2026-05-04 23:25 | 40.73802 | -2.06313 | 21197 ft | 414 kts | 257° |
| 2026-05-04 23:26 | 40.73160 | -2.10004 | 20594 ft | 411 kts | 257° |
| 2026-05-04 23:26 | 40.72780 | -2.13707 | 20113 ft | 404 kts | 269° |
| 2026-05-04 23:26 | 40.72936 | -2.17377 | 19688 ft | 400 kts | 278° |
| 2026-05-04 23:26 | 40.73375 | -2.20986 | 19318 ft | 397 kts | 279° |
| 2026-05-04 23:27 | 40.73811 | -2.24566 | 18990 ft | 395 kts | 279° |
| 2026-05-04 23:27 | 40.74163 | -2.28140 | 18680 ft | 392 kts | 271° |
| 2026-05-04 23:27 | 40.73878 | -2.31700 | 18439 ft | 391 kts | 258° |
| 2026-05-04 23:27 | 40.73320 | -2.35200 | 18187 ft | 389 kts | 258° |
| 2026-05-04 23:28 | 40.72754 | -2.38683 | 17939 ft | 387 kts | 258° |
| 2026-05-04 23:28 | 40.72190 | -2.42111 | 17552 ft | 379 kts | 258° |
| 2026-05-04 23:28 | 40.71632 | -2.45485 | 17095 ft | 375 kts | 258° |
| 2026-05-04 23:28 | 40.71081 | -2.48827 | 16622 ft | 371 kts | 258° |
| 2026-05-04 23:29 | 40.70538 | -2.52130 | 16152 ft | 368 kts | 258° |
| 2026-05-04 23:29 | 40.69994 | -2.55417 | 15677 ft | 365 kts | 258° |
| 2026-05-04 23:29 | 40.69454 | -2.58676 | 15179 ft | 363 kts | 258° |
| 2026-05-04 23:29 | 40.68920 | -2.61895 | 14902 ft | 354 kts | 258° |
| 2026-05-04 23:30 | 40.68403 | -2.65016 | 14770 ft | 342 kts | 258° |
| 2026-05-04 23:30 | 40.67906 | -2.68024 | 14647 ft | 330 kts | 258° |
| 2026-05-04 23:30 | 40.67418 | -2.70927 | 14528 ft | 322 kts | 256° |
| 2026-05-04 23:30 | 40.66435 | -2.73655 | 14459 ft | 339 kts | 230° |
| 2026-05-04 23:31 | 40.64608 | -2.75640 | 14387 ft | 345 kts | 214° |
| 2026-05-04 23:31 | 40.62590 | -2.77364 | 14310 ft | 346 kts | 214° |
| 2026-05-04 23:31 | 40.60618 | -2.79158 | 14234 ft | 346 kts | 216° |
| 2026-05-04 23:31 | 40.58683 | -2.81035 | 14157 ft | 345 kts | 218° |
| 2026-05-04 23:32 | 40.56778 | -2.82948 | 14071 ft | 345 kts | 218° |
| 2026-05-04 23:32 | 40.54878 | -2.84875 | 13909 ft | 344 kts | 218° |
| 2026-05-04 23:32 | 40.52986 | -2.86793 | 13426 ft | 343 kts | 218° |
| 2026-05-04 23:32 | 40.51094 | -2.88698 | 12925 ft | 342 kts | 218° |
| 2026-05-04 23:33 | 40.49203 | -2.90586 | 12396 ft | 341 kts | 218° |
| 2026-05-04 23:33 | 40.47311 | -2.92460 | 11872 ft | 340 kts | 218° |
| 2026-05-04 23:33 | 40.45416 | -2.94328 | 11327 ft | 340 kts | 217° |
| 2026-05-04 23:33 | 40.43527 | -2.96189 | 10846 ft | 337 kts | 218° |
| 2026-05-04 23:34 | 40.41688 | -2.98004 | 10709 ft | 324 kts | 218° |
| 2026-05-04 23:34 | 40.39922 | -2.99750 | 10585 ft | 312 kts | 218° |
| 2026-05-04 23:34 | 40.38220 | -3.01427 | 10454 ft | 301 kts | 218° |
| 2026-05-04 23:34 | 40.36597 | -3.03025 | 10328 ft | 291 kts | 218° |
| 2026-05-04 23:35 | 40.34975 | -3.04619 | 10107 ft | 284 kts | 218° |
| 2026-05-04 23:35 | 40.33403 | -3.06161 | 9906 ft | 281 kts | 218° |
| 2026-05-04 23:35 | 40.31860 | -3.07677 | 9781 ft | 281 kts | 218° |
| 2026-05-04 23:35 | 40.30289 | -3.09221 | 9326 ft | 287 kts | 218° |
| 2026-05-04 23:36 | 40.28710 | -3.10767 | 9092 ft | 275 kts | 217° |
| 2026-05-04 23:36 | 40.27326 | -3.12452 | 8703 ft | 263 kts | 235° |
| 2026-05-04 23:36 | 40.26531 | -3.14473 | 8520 ft | 245 kts | 253° |
| 2026-05-04 23:36 | 40.26273 | -3.16659 | 8115 ft | 238 kts | 272° |
| 2026-05-04 23:37 | 40.26494 | -3.18750 | 7757 ft | 235 kts | 280° |
| 2026-05-04 23:37 | 40.26779 | -3.20856 | 7409 ft | 236 kts | 279° |
| 2026-05-04 23:37 | 40.27059 | -3.22976 | 7053 ft | 235 kts | 279° |
| 2026-05-04 23:37 | 40.27332 | -3.25047 | 6805 ft | 227 kts | 279° |
| 2026-05-04 23:38 | 40.27598 | -3.27068 | 6598 ft | 224 kts | 279° |
| 2026-05-04 23:38 | 40.27865 | -3.29095 | 6387 ft | 222 kts | 279° |
| 2026-05-04 23:38 | 40.28147 | -3.31082 | 6169 ft | 221 kts | 285° |
| 2026-05-04 23:38 | 40.28708 | -3.32931 | 5942 ft | 219 kts | 298° |
| 2026-05-04 23:39 | 40.29584 | -3.34545 | 5573 ft | 222 kts | 310° |
| 2026-05-04 23:39 | 40.30572 | -3.36050 | 5506 ft | 211 kts | 309° |
| 2026-05-04 23:39 | 40.31547 | -3.37455 | 5471 ft | 207 kts | 315° |
| 2026-05-04 23:39 | 40.32627 | -3.38691 | 5402 ft | 206 kts | 320° |
| 2026-05-04 23:40 | 40.33725 | -3.39826 | 5208 ft | 197 kts | 321° |
| 2026-05-04 23:40 | 40.34793 | -3.40906 | 4970 ft | 192 kts | 321° |
| 2026-05-04 23:40 | 40.35840 | -3.41963 | 4724 ft | 189 kts | 321° |
| 2026-05-04 23:40 | 40.36873 | -3.43006 | 4490 ft | 187 kts | 321° |
| 2026-05-04 23:41 | 40.37885 | -3.44029 | 4236 ft | 185 kts | 321° |
| 2026-05-04 23:41 | 40.38893 | -3.45048 | 3982 ft | 178 kts | 321° |
| 2026-05-04 23:41 | 40.39820 | -3.45984 | 3765 ft | 159 kts | 321° |
| 2026-05-04 23:41 | 40.40664 | -3.46838 | 3556 ft | 149 kts | 321° |
| 2026-05-04 23:42 | 40.41474 | -3.47657 | 3367 ft | 145 kts | 321° |
| 2026-05-04 23:42 | 40.42269 | -3.48463 | 3177 ft | 144 kts | 321° |
| 2026-05-04 23:42 | 40.43058 | -3.49261 | 2987 ft | 143 kts | 321° |
| 2026-05-04 23:42 | 40.43842 | -3.50056 | 2794 ft | 142 kts | 321° |
| 2026-05-04 23:43 | 40.44625 | -3.50849 | 2604 ft | 142 kts | 321° |
| 2026-05-04 23:43 | 40.45403 | -3.51643 | 2410 ft | 142 kts | 320° |
| 2026-05-04 23:43 | 40.46179 | -3.52436 | 2224 ft | 142 kts | 321° |
| 2026-05-04 23:43 | 40.46956 | -3.53221 | 2048 ft | 142 kts | 321° |
| 2026-05-04 23:44 | 40.47728 | -3.54001 | 1925 ft | 136 kts | 321° |
| 2026-05-04 23:44 | 40.48348 | -3.54630 | 1935 ft | 87 kts | 322° |
| 2026-05-04 23:44 | 40.48690 | -3.54984 | 1948 ft | 45 kts | 321° |
| 2026-05-04 23:44 | 40.48910 | -3.55215 | 1952 ft | 38 kts | 321° |
| 2026-05-04 23:45 | 40.49112 | -3.55421 | 1954 ft | 35 kts | 322° |
| 2026-05-04 23:45 | 40.49232 | -3.55656 | 1963 ft | 30 kts | 292° |
| 2026-05-04 23:45 | 40.49257 | -3.55741 | 1966 ft | 0 kts | 291° |
| 2026-05-04 23:46 | 40.49259 | -3.55748 | 1964 ft | 4 kts | 291° |
| 2026-05-04 23:46 | 40.49285 | -3.55836 | 1966 ft | 16 kts | 292° |
| 2026-05-04 23:47 | 40.49299 | -3.56014 | 1959 ft | 23 kts | 269° |
| 2026-05-04 23:47 | 40.49298 | -3.56192 | 1960 ft | 18 kts | 280° |
| 2026-05-04 23:47 | 40.49424 | -3.56247 | 1962 ft | 22 kts | 1° |
| 2026-05-04 23:47 | 40.49545 | -3.56282 | 1964 ft | 17 kts | 300° |
| 2026-05-04 23:48 | 40.49553 | -3.56422 | 1966 ft | 15 kts | 271° |
| 2026-05-04 23:48 | 40.49576 | -3.56538 | 1973 ft | 13 kts | 332° |
| 2026-05-04 23:48 | 40.49600 | -3.56545 | 1972 ft | 0 kts | 355° |
| 2026-05-04 23:49 | 40.49620 | -3.56557 | 1973 ft | 5 kts | 316° |
| 2026-05-04 23:49 | 40.49617 | -3.56625 | 1972 ft | 9 kts | 273° |
| 2026-05-04 23:49 | 40.49619 | -3.56652 | 1971 ft | 3 kts | 272° |
| 2026-05-04 23:49 | 40.49619 | -3.56657 | 1971 ft | 0 kts | 271° |